Time;durP1;ratioP1;P1;durP2;ratioP2;P2;SDS_P1;SDS_P2;PMS_P1;PMS_P2;Temp;Humidity;BMP_temperature;BMP_pressure;BME280_temperature;BME280_humidity;BME280_pressure;Samples;Min_cycle;Max_cycle;Signal;HPM_P1;HPM_P2
2021/03/19 00:00:29;;;;;;;18.73;12.32;;;;;;;;;;5080971;28;20028;-61
2021/03/19 00:02:55;;;;;;;21.27;13.90;;;;;;;;;;5081526;28;20036;-65
2021/03/19 00:05:22;;;;;;;19.75;13.15;;;;;;;;;;5081670;28;20068;-62
2021/03/19 00:07:54;;;;;;;20.05;13.07;;;;;;;;;;5080749;28;20033;-69
2021/03/19 00:10:23;;;;;;;17.58;11.70;;;;;;;;;;5082334;28;20047;-62
2021/03/19 00:12:50;;;;;;;20.25;13.27;;;;;;;;;;5081832;28;20092;-62
2021/03/19 00:15:17;;;;;;;18.45;12.50;;;;;;;;;;5086155;28;20028;-62
2021/03/19 00:17:43;;;;;;;19.77;13.00;;;;;;;;;;5093119;28;20110;-59
2021/03/19 00:20:10;;;;;;;18.23;11.82;;;;;;;;;;5092603;28;20036;-58
2021/03/19 00:22:36;;;;;;;20.00;12.00;;;;;;;;;;5092428;28;20051;-59
2021/03/19 00:25:03;;;;;;;21.85;12.73;;;;;;;;;;5088222;28;20028;-63
2021/03/19 00:27:29;;;;;;;22.77;13.00;;;;;;;;;;5082566;28;20538;-63
2021/03/19 00:29:55;;;;;;;20.30;12.60;;;;;;;;;;5090355;28;20012;-64
2021/03/19 00:32:21;;;;;;;20.08;12.88;;;;;;;;;;5091505;28;20036;-65
2021/03/19 00:34:48;;;;;;;20.35;12.20;;;;;;;;;;5090764;28;20028;-66
2021/03/19 00:37:14;;;;;;;20.60;13.80;;;;;;;;;;5092309;28;20020;-61
2021/03/19 00:39:40;;;;;;;21.02;12.30;;;;;;;;;;5092578;28;20496;-61
2021/03/19 00:42:06;;;;;;;23.02;15.00;;;;;;;;;;5092995;28;20030;-62
2021/03/19 00:44:33;;;;;;;23.35;14.55;;;;;;;;;;5092568;28;20086;-60
2021/03/19 00:46:59;;;;;;;23.35;14.25;;;;;;;;;;5092633;28;20028;-61
2021/03/19 00:49:25;;;;;;;21.50;14.07;;;;;;;;;;5093290;28;20363;-60
2021/03/19 00:51:51;;;;;;;25.73;15.32;;;;;;;;;;5093386;28;20032;-61
2021/03/19 00:54:17;;;;;;;25.27;15.38;;;;;;;;;;5093161;28;20444;-60
2021/03/19 00:56:43;;;;;;;26.52;15.30;;;;;;;;;;5075961;28;20383;-61
2021/03/19 00:59:09;;;;;;;23.40;14.40;;;;;;;;;;5072767;28;20012;-61
2021/03/19 01:01:35;;;;;;;24.80;15.07;;;;;;;;;;5072897;28;20381;-61
2021/03/19 01:04:05;;;;;;;23.15;13.63;;;;;;;;;;5072804;28;20021;-60
2021/03/19 01:06:31;;;;;;;23.00;13.82;;;;;;;;;;5072641;28;20032;-61
2021/03/19 01:08:58;;;;;;;21.30;13.80;;;;;;;;;;5072864;28;20475;-61
2021/03/19 01:11:24;;;;;;;23.83;14.27;;;;;;;;;;5072967;28;20052;-66
2021/03/19 01:13:50;;;;;;;21.88;13.55;;;;;;;;;;5072784;28;20021;-68
2021/03/19 01:16:16;;;;;;;20.85;13.27;;;;;;;;;;5072539;28;20024;-71
2021/03/19 01:18:42;;;;;;;20.98;13.40;;;;;;;;;;5091004;28;20466;-70
2021/03/19 01:21:09;;;;;;;24.23;14.50;;;;;;;;;;5092084;28;20497;-70
2021/03/19 01:23:35;;;;;;;21.45;13.30;;;;;;;;;;5092577;28;20096;-69
2021/03/19 01:26:01;;;;;;;23.33;14.18;;;;;;;;;;5094430;28;20374;-70
2021/03/19 01:28:27;;;;;;;23.20;13.35;;;;;;;;;;5096134;28;20385;-69
2021/03/19 01:30:53;;;;;;;18.95;12.60;;;;;;;;;;5095962;28;20490;-65
2021/03/19 01:33:19;;;;;;;23.00;13.25;;;;;;;;;;5096596;28;20032;-71
2021/03/19 01:35:45;;;;;;;21.92;13.35;;;;;;;;;;5096194;28;20036;-71
2021/03/19 01:38:12;;;;;;;21.45;13.07;;;;;;;;;;5096642;28;20459;-70
2021/03/19 01:40:44;;;;;;;24.92;14.93;;;;;;;;;;5095780;28;20032;-70
2021/03/19 01:43:17;;;;;;;20.23;13.45;;;;;;;;;;5077701;28;20028;-71
2021/03/19 01:46:02;;;;;;;23.55;14.80;;;;;;;;;;5096088;28;20473;-69
2021/03/19 01:48:46;;;;;;;22.42;14.25;;;;;;;;;;5095910;28;20198;-70
2021/03/19 01:51:31;;;;;;;23.98;15.02;;;;;;;;;;5095823;28;20373;-72
2021/03/19 01:54:15;;;;;;;25.83;15.38;;;;;;;;;;5095695;28;20473;-71
2021/03/19 01:57:00;;;;;;;24.52;15.98;;;;;;;;;;5095963;28;20138;-72
2021/03/19 01:59:44;;;;;;;25.63;15.32;;;;;;;;;;5095525;28;20027;-72
2021/03/19 02:02:29;;;;;;;24.75;15.02;;;;;;;;;;5096096;28;20377;-70
2021/03/19 02:05:13;;;;;;;22.98;15.43;;;;;;;;;;5095582;28;20327;-72
2021/03/19 02:07:58;;;;;;;23.92;15.57;;;;;;;;;;5095647;28;20394;-72
2021/03/19 02:10:42;;;;;;;24.25;14.88;;;;;;;;;;5095635;28;20047;-72
2021/03/19 02:13:27;;;;;;;25.05;14.70;;;;;;;;;;5095853;28;20048;-72
2021/03/19 02:16:11;;;;;;;24.50;15.25;;;;;;;;;;5094987;28;20028;-71
2021/03/19 02:18:56;;;;;;;23.95;14.93;;;;;;;;;;5096143;28;20496;-71
2021/03/19 02:21:40;;;;;;;24.52;14.45;;;;;;;;;;5095542;28;20055;-72
2021/03/19 02:24:25;;;;;;;24.15;15.00;;;;;;;;;;5095654;28;20036;-69
2021/03/19 02:27:10;;;;;;;21.70;13.13;;;;;;;;;;5095852;28;20036;-69
2021/03/19 02:29:54;;;;;;;23.88;13.70;;;;;;;;;;5095553;28;20034;-70
2021/03/19 02:32:23;;;;;;;23.50;14.27;;;;;;;;;;5095825;28;20031;-72
2021/03/19 02:35:03;;;;;;;23.77;14.35;;;;;;;;;;5095437;28;20470;-71
2021/03/19 02:37:32;;;;;;;21.90;14.02;;;;;;;;;;5094362;28;20024;-71
2021/03/19 02:39:58;;;;;;;24.52;15.13;;;;;;;;;;5077673;28;20024;-72
2021/03/19 02:42:26;;;;;;;26.85;15.88;;;;;;;;;;5077058;28;20028;-71
2021/03/19 02:44:52;;;;;;;23.02;13.30;;;;;;;;;;5095273;28;20028;-69
2021/03/19 02:47:19;;;;;;;22.77;14.48;;;;;;;;;;5093947;28;20036;-71
2021/03/19 02:49:45;;;;;;;26.15;15.07;;;;;;;;;;5094692;28;20027;-68
2021/03/19 02:52:11;;;;;;;24.20;14.35;;;;;;;;;;5095015;28;20477;-72
2021/03/19 02:54:37;;;;;;;21.63;13.80;;;;;;;;;;5094676;28;20040;-71
2021/03/19 02:57:03;;;;;;;23.13;14.30;;;;;;;;;;5094935;28;20024;-72
2021/03/19 02:59:29;;;;;;;21.85;13.35;;;;;;;;;;5095115;28;20466;-73
2021/03/19 03:01:55;;;;;;;26.60;15.35;;;;;;;;;;5098504;28;20068;-72
2021/03/19 03:04:21;;;;;;;24.50;15.45;;;;;;;;;;5096703;28;20024;-71
2021/03/19 03:06:47;;;;;;;24.77;14.35;;;;;;;;;;5097132;28;20452;-73
2021/03/19 03:09:19;;;;;;;27.50;16.23;;;;;;;;;;5096856;28;20040;-72
2021/03/19 03:11:45;;;;;;;26.48;15.98;;;;;;;;;;5096935;28;20024;-73
2021/03/19 03:14:13;;;;;;;25.48;16.27;;;;;;;;;;5095232;28;20020;-71
2021/03/19 03:16:39;;;;;;;26.75;16.17;;;;;;;;;;5096033;28;20081;-72
2021/03/19 03:19:07;;;;;;;27.13;16.35;;;;;;;;;;5095268;28;20110;-72
2021/03/19 03:21:33;;;;;;;26.42;16.00;;;;;;;;;;5095480;28;20429;-72
2021/03/19 03:23:59;;;;;;;27.10;16.35;;;;;;;;;;5095338;28;20073;-71
2021/03/19 03:26:25;;;;;;;26.90;16.52;;;;;;;;;;5094297;28;20036;-71
2021/03/19 03:28:51;;;;;;;28.30;16.83;;;;;;;;;;5094172;28;20099;-72
2021/03/19 03:31:17;;;;;;;28.65;17.55;;;;;;;;;;5093999;28;20044;-71
2021/03/19 03:33:43;;;;;;;28.10;17.33;;;;;;;;;;5094401;28;20048;-71
2021/03/19 03:36:09;;;;;;;29.13;17.70;;;;;;;;;;5094368;28;20021;-71
2021/03/19 03:38:35;;;;;;;27.67;17.05;;;;;;;;;;5085899;22;20561;-71
2021/03/19 03:41:10;;;;;;;30.48;17.40;;;;;;;;;;5078977;28;20126;-71
2021/03/19 03:43:36;;;;;;;33.47;19.55;;;;;;;;;;5095446;28;20024;-70
2021/03/19 03:46:04;;;;;;;31.45;18.83;;;;;;;;;;5094465;28;20024;-71
2021/03/19 03:48:31;;;;;;;31.40;19.83;;;;;;;;;;5094031;28;20032;-71
2021/03/19 03:50:58;;;;;;;30.10;17.67;;;;;;;;;;5094459;28;20062;-71
2021/03/19 03:53:24;;;;;;;33.63;19.50;;;;;;;;;;5076617;28;20028;-72
2021/03/19 03:55:50;;;;;;;31.95;19.45;;;;;;;;;;5095286;28;20024;-71
2021/03/19 03:58:17;;;;;;;30.40;18.55;;;;;;;;;;5095757;28;20139;-73
2021/03/19 04:00:43;;;;;;;31.77;19.75;;;;;;;;;;5076662;28;20016;-72
2021/03/19 04:03:10;;;;;;;31.73;19.48;;;;;;;;;;5092737;28;20024;-71
2021/03/19 04:05:40;;;;;;;33.80;20.45;;;;;;;;;;5095913;28;20047;-74
2021/03/19 04:08:07;;;;;;;35.92;21.63;;;;;;;;;;5097667;28;20115;-74
2021/03/19 04:10:34;;;;;;;35.30;21.30;;;;;;;;;;5097190;28;20031;-74
2021/03/19 04:13:00;;;;;;;40.33;23.40;;;;;;;;;;5079470;28;20472;-72
2021/03/19 04:15:26;;;;;;;34.28;21.17;;;;;;;;;;5097705;28;20030;-72
2021/03/19 04:17:59;;;;;;;38.15;21.05;;;;;;;;;;5098560;28;20020;-73
2021/03/19 04:20:26;;;;;;;34.60;21.05;;;;;;;;;;5098158;28;20036;-71
2021/03/19 04:22:52;;;;;;;36.03;21.52;;;;;;;;;;5093721;28;20028;-71
2021/03/19 04:25:18;;;;;;;35.90;21.30;;;;;;;;;;5092956;28;20024;-71
2021/03/19 04:27:48;;;;;;;37.33;21.58;;;;;;;;;;5092930;28;20042;-71
2021/03/19 04:30:21;;;;;;;39.80;22.60;;;;;;;;;;5092777;28;20032;-70
2021/03/19 04:32:48;;;;;;;36.85;22.23;;;;;;;;;;5093073;28;20030;-71
2021/03/19 04:35:16;;;;;;;36.35;21.92;;;;;;;;;;5093250;28;20080;-71
2021/03/19 04:37:42;;;;;;;42.03;22.70;;;;;;;;;;5093119;28;20413;-72
2021/03/19 04:40:09;;;;;;;43.78;24.75;;;;;;;;;;5078757;28;20048;-71
2021/03/19 04:42:35;;;;;;;40.63;23.23;;;;;;;;;;5073118;28;20031;-71
2021/03/19 04:45:01;;;;;;;35.85;19.92;;;;;;;;;;5072965;28;20024;-71
2021/03/19 04:47:27;;;;;;;38.00;21.55;;;;;;;;;;5072942;28;20036;-69
2021/03/19 04:49:54;;;;;;;38.17;21.13;;;;;;;;;;5073177;28;20462;-68
2021/03/19 04:52:20;;;;;;;37.42;21.92;;;;;;;;;;5074087;28;20028;-73
2021/03/19 04:54:46;;;;;;;37.92;21.40;;;;;;;;;;5077764;28;20025;-72
2021/03/19 04:57:12;;;;;;;38.03;22.13;;;;;;;;;;5077121;28;20028;-70
2021/03/19 04:59:38;;;;;;;38.97;21.70;;;;;;;;;;5078165;28;20067;-74
2021/03/19 05:02:04;;;;;;;37.47;22.67;;;;;;;;;;5082344;28;20036;-73
2021/03/19 05:04:30;;;;;;;40.17;23.13;;;;;;;;;;5081105;28;20024;-73
2021/03/19 05:07:00;;;;;;;38.30;22.00;;;;;;;;;;5082669;28;20032;-72
2021/03/19 05:09:26;;;;;;;40.13;22.73;;;;;;;;;;5083441;28;20094;-76
2021/03/19 05:11:52;;;;;;;38.78;22.60;;;;;;;;;;5078406;28;20031;-72
2021/03/19 05:14:19;;;;;;;38.80;21.73;;;;;;;;;;5075836;28;20103;-71
2021/03/19 05:16:45;;;;;;;39.58;22.83;;;;;;;;;;5072438;28;20030;-71
2021/03/19 05:19:11;;;;;;;41.65;23.25;;;;;;;;;;5076339;28;20039;-72
2021/03/19 05:21:37;;;;;;;40.83;23.58;;;;;;;;;;5076359;28;20028;-71
2021/03/19 05:24:04;;;;;;;42.33;24.35;;;;;;;;;;5075824;28;20016;-71
2021/03/19 05:26:30;;;;;;;38.08;22.85;;;;;;;;;;5076000;28;20033;-71
2021/03/19 05:28:56;;;;;;;38.25;22.48;;;;;;;;;;5076224;28;20518;-71
2021/03/19 05:31:22;;;;;;;41.95;23.40;;;;;;;;;;5068876;28;20347;-66
2021/03/19 05:33:50;;;;;;;43.05;24.67;;;;;;;;;;5057324;28;20040;-70
2021/03/19 05:36:17;;;;;;;41.67;22.60;;;;;;;;;;5076233;28;20037;-70
2021/03/19 05:38:43;;;;;;;45.08;25.20;;;;;;;;;;5075911;28;20068;-69
2021/03/19 05:41:11;;;;;;;42.97;24.48;;;;;;;;;;5075790;28;20055;-69
2021/03/19 05:43:39;;;;;;;43.08;24.13;;;;;;;;;;5075868;28;20032;-67
2021/03/19 05:46:10;;;;;;;45.37;25.00;;;;;;;;;;5075788;28;20102;-70
2021/03/19 05:48:55;;;;;;;39.50;25.02;;;;;;;;;;5057746;28;20307;-68
2021/03/19 05:51:30;;;;;;;42.50;26.27;;;;;;;;;;5050034;28;20390;-69
2021/03/19 05:54:00;;;;;;;42.25;25.35;;;;;;;;;;5076057;28;20066;-69
2021/03/19 05:56:29;;;;;;;42.38;24.35;;;;;;;;;;5076297;28;20569;-70
2021/03/19 05:58:55;;;;;;;43.45;24.52;;;;;;;;;;5076379;28;20149;-69
2021/03/19 06:01:22;;;;;;;40.13;22.98;;;;;;;;;;5076113;28;20025;-69
2021/03/19 06:03:48;;;;;;;38.78;24.45;;;;;;;;;;5075896;28;20099;-70
2021/03/19 06:06:15;;;;;;;36.80;22.55;;;;;;;;;;5075826;28;20028;-69
2021/03/19 06:08:45;;;;;;;45.17;25.77;;;;;;;;;;5076312;28;20505;-70
2021/03/19 06:11:22;;;;;;;45.55;25.50;;;;;;;;;;5075506;28;20107;-70
2021/03/19 06:13:51;;;;;;;46.00;25.55;;;;;;;;;;5075958;28;20477;-69
2021/03/19 06:16:17;;;;;;;43.75;26.42;;;;;;;;;;5075577;28;20478;-67
2021/03/19 06:18:48;;;;;;;43.10;25.42;;;;;;;;;;5075789;28;20028;-69
2021/03/19 06:21:21;;;;;;;42.65;26.02;;;;;;;;;;5074402;28;20025;-69
2021/03/19 06:23:59;;;;;;;42.45;25.05;;;;;;;;;;5075319;28;20138;-67
2021/03/19 06:26:27;;;;;;;41.57;24.37;;;;;;;;;;5075145;28;20035;-69
2021/03/19 06:29:13;;;;;;;40.90;25.42;;;;;;;;;;5075388;28;20260;-69
2021/03/19 06:31:40;;;;;;;47.30;26.73;;;;;;;;;;5057216;28;20052;-69
2021/03/19 06:34:25;;;;;;;45.63;25.35;;;;;;;;;;5074994;28;20513;-68
2021/03/19 06:37:06;;;;;;;45.58;27.50;;;;;;;;;;5086282;28;20470;-67
2021/03/19 06:39:33;;;;;;;45.35;26.92;;;;;;;;;;5079369;28;20048;-67
2021/03/19 06:42:19;;;;;;;45.95;27.33;;;;;;;;;;5074381;28;20017;-68
2021/03/19 06:45:06;;;;;;;47.65;27.00;;;;;;;;;;4973814;28;20034;-69
2021/03/19 06:47:43;;;;;;;41.90;26.13;;;;;;;;;;4989368;28;20085;-68
2021/03/19 06:50:25;;;;;;;45.67;27.05;;;;;;;;;;4974083;28;20074;-67
2021/03/19 06:52:52;;;;;;;38.83;23.38;;;;;;;;;;4974202;28;20031;-69
2021/03/19 06:55:36;;;;;;;41.45;25.95;;;;;;;;;;4960752;28;20393;-69
2021/03/19 06:58:02;;;;;;;41.90;24.45;;;;;;;;;;4973965;28;20038;-70
2021/03/19 07:00:40;;;;;;;31.00;21.77;;;;;;;;;;4973989;28;20031;-69
2021/03/19 07:03:22;;;;;;;39.50;22.67;;;;;;;;;;4987504;28;20034;-67
2021/03/19 07:05:57;;;;;;;32.75;20.73;;;;;;;;;;4974137;28;20062;-67
2021/03/19 07:08:30;;;;;;;34.47;20.42;;;;;;;;;;4969200;28;20057;-69
2021/03/19 07:11:05;;;;;;;30.40;20.30;;;;;;;;;;4973699;28;20023;-68
2021/03/19 07:13:41;;;;;;;32.45;19.63;;;;;;;;;;4973570;28;20508;-64
2021/03/19 07:16:10;;;;;;;31.05;20.33;;;;;;;;;;4973559;28;20066;-66
2021/03/19 07:18:46;;;;;;;31.45;19.60;;;;;;;;;;4973124;28;20054;-66
2021/03/19 07:21:25;;;;;;;33.78;21.23;;;;;;;;;;4993907;28;20036;-65
2021/03/19 07:24:00;;;;;;;31.80;20.40;;;;;;;;;;5054267;28;20029;-65
2021/03/19 07:26:30;;;;;;;30.95;20.40;;;;;;;;;;5073658;28;20371;-66
2021/03/19 07:29:11;;;;;;;31.45;20.70;;;;;;;;;;5073580;28;20032;-65
2021/03/19 07:31:37;;;;;;;33.75;20.52;;;;;;;;;;5073864;28;20379;-64
2021/03/19 07:34:13;;;;;;;33.00;21.38;;;;;;;;;;5073376;28;20386;-69
2021/03/19 07:36:51;;;;;;;33.95;22.17;;;;;;;;;;5073649;28;20025;-65
2021/03/19 07:39:32;;;;;;;31.63;21.17;;;;;;;;;;5070156;28;20593;-65
2021/03/19 07:42:16;;;;;;;33.90;21.77;;;;;;;;;;5062165;28;20047;-67
2021/03/19 07:45:01;;;;;;;32.00;22.13;;;;;;;;;;5061919;28;20050;-65
2021/03/19 07:47:27;;;;;;;38.03;24.00;;;;;;;;;;5067996;28;20295;-65
2021/03/19 07:50:08;;;;;;;37.80;24.33;;;;;;;;;;5073724;28;20021;-65
2021/03/19 07:52:53;;;;;;;41.60;25.13;;;;;;;;;;5073906;28;20024;-66
2021/03/19 07:55:30;;;;;;;45.78;28.65;;;;;;;;;;5073110;28;20036;-66
2021/03/19 07:58:14;;;;;;;39.90;25.65;;;;;;;;;;5073377;28;20030;-65
2021/03/19 08:00:46;;;;;;;40.28;25.73;;;;;;;;;;5073151;28;20024;-63
2021/03/19 08:03:13;;;;;;;42.05;25.73;;;;;;;;;;5071272;28;20028;-64
2021/03/19 08:05:42;;;;;;;39.53;26.42;;;;;;;;;;5062317;28;20095;-65
2021/03/19 08:08:11;;;;;;;42.72;27.33;;;;;;;;;;5072382;28;20029;-65
2021/03/19 08:10:40;;;;;;;41.15;26.85;;;;;;;;;;5071599;28;20065;-64
2021/03/19 08:13:06;;;;;;;;;;;;;;;;;;5075039;28;20377;-64
2021/03/19 08:15:33;;;;;;;45.58;26.90;;;;;;;;;;5073488;28;20002;-66
2021/03/19 08:18:17;;;;;;;40.33;25.90;;;;;;;;;;5073821;28;20434;-65
2021/03/19 08:20:46;;;;;;;42.95;27.35;;;;;;;;;;5073475;28;20031;-64
2021/03/19 08:23:22;;;;;;;41.33;26.27;;;;;;;;;;5073609;28;20021;-65
2021/03/19 08:25:49;;;;;;;41.67;26.80;;;;;;;;;;5073137;28;20036;-66
2021/03/19 08:28:15;;;;;;;38.50;25.70;;;;;;;;;;5073173;28;20107;-67
2021/03/19 08:31:03;;;;;;;43.33;26.55;;;;;;;;;;5054940;28;20017;-66
2021/03/19 08:33:48;;;;;;;45.80;27.63;;;;;;;;;;5053929;28;20032;-66
2021/03/19 08:36:20;;;;;;;46.30;27.50;;;;;;;;;;5072938;28;20042;-66
2021/03/19 08:38:50;;;;;;;45.13;28.25;;;;;;;;;;5070332;28;20063;-65
2021/03/19 08:41:25;;;;;;;42.50;27.88;;;;;;;;;;5072369;28;20032;-65
2021/03/19 08:43:54;;;;;;;41.83;26.10;;;;;;;;;;5072581;28;20024;-65
2021/03/19 08:46:26;;;;;;;37.60;26.08;;;;;;;;;;5072990;28;20035;-65
2021/03/19 08:49:00;;;;;;;36.95;23.20;;;;;;;;;;5072922;28;20091;-65
2021/03/19 08:51:30;;;;;;;31.17;21.73;;;;;;;;;;5072870;28;20020;-65
2021/03/19 08:54:15;;;;;;;33.75;22.30;;;;;;;;;;5072510;28;20470;-65
2021/03/19 08:56:43;;;;;;;34.83;21.73;;;;;;;;;;5072662;28;20024;-65
2021/03/19 08:59:09;;;;;;;33.38;22.35;;;;;;;;;;5072459;28;20107;-65
2021/03/19 09:01:54;;;;;;;32.55;20.98;;;;;;;;;;5054541;28;20027;-66
2021/03/19 09:04:39;;;;;;;33.92;21.52;;;;;;;;;;5072136;28;20033;-66
2021/03/19 09:07:17;;;;;;;37.30;24.17;;;;;;;;;;5072433;28;20045;-65
2021/03/19 09:09:44;;;;;;;40.42;26.42;;;;;;;;;;5072134;28;20028;-65
2021/03/19 09:12:12;;;;;;;39.00;23.63;;;;;;;;;;5072413;28;20020;-66
2021/03/19 09:14:38;;;;;;;41.53;25.90;;;;;;;;;;5072079;28;20440;-65
2021/03/19 09:17:05;;;;;;;52.72;32.65;;;;;;;;;;5073003;28;20096;-66
2021/03/19 09:19:41;;;;;;;48.55;31.45;;;;;;;;;;5071971;28;20028;-66
2021/03/19 09:22:24;;;;;;;45.53;30.10;;;;;;;;;;5072569;28;20017;-66
2021/03/19 09:25:09;;;;;;;42.15;26.42;;;;;;;;;;5072107;28;20056;-66
2021/03/19 09:27:35;;;;;;;40.80;26.05;;;;;;;;;;5072213;28;20493;-66
2021/03/19 09:30:28;;;;;;;40.92;26.27;;;;;;;;;;5072444;28;20048;-66
2021/03/19 09:32:56;;;;;;;43.45;27.60;;;;;;;;;;5049933;28;20471;-66
2021/03/19 09:35:42;;;;;;;45.78;28.08;;;;;;;;;;5072155;28;20102;-66
2021/03/19 09:38:23;;;;;;;37.67;26.48;;;;;;;;;;5072011;28;20370;-66
2021/03/19 09:40:55;;;;;;;46.95;28.52;;;;;;;;;;5059891;28;20056;-66
2021/03/19 09:43:40;;;;;;;41.70;27.77;;;;;;;;;;5073828;28;20028;-66
2021/03/19 09:46:15;;;;;;;39.33;26.52;;;;;;;;;;5073161;28;20489;-65
2021/03/19 09:48:53;;;;;;;40.28;26.75;;;;;;;;;;5077793;28;20074;-66
2021/03/19 09:51:38;;;;;;;38.60;25.85;;;;;;;;;;5077293;28;20070;-66
2021/03/19 09:54:23;;;;;;;38.17;25.67;;;;;;;;;;5077008;28;20025;-65
2021/03/19 09:56:49;;;;;;;38.00;26.20;;;;;;;;;;5073556;28;20029;-65
2021/03/19 09:59:21;;;;;;;44.35;27.00;;;;;;;;;;5058077;28;20101;-64
2021/03/19 10:01:47;;;;;;;40.55;27.10;;;;;;;;;;5076371;28;20113;-68
2021/03/19 10:04:26;;;;;;;41.55;27.30;;;;;;;;;;5075961;28;20025;-67
2021/03/19 10:06:52;;;;;;;38.90;26.05;;;;;;;;;;5057130;28;20102;-66
2021/03/19 10:09:21;;;;;;;38.72;25.83;;;;;;;;;;5058814;28;20036;-67
2021/03/19 10:12:10;;;;;;;41.63;26.77;;;;;;;;;;5058085;28;20060;-67
2021/03/19 10:14:38;;;;;;;39.40;25.88;;;;;;;;;;5074623;28;20037;-66
2021/03/19 10:17:06;;;;;;;39.60;25.75;;;;;;;;;;5057322;28;20021;-66
2021/03/19 10:19:37;;;;;;;41.85;27.92;;;;;;;;;;5057062;28;20119;-66
2021/03/19 10:22:04;;;;;;;37.08;26.08;;;;;;;;;;5057340;28;20020;-67
2021/03/19 10:24:30;;;;;;;39.72;27.23;;;;;;;;;;5075008;28;20012;-67
2021/03/19 10:27:05;;;;;;;37.65;26.48;;;;;;;;;;5074939;28;20040;-66
2021/03/19 10:29:35;;;;;;;37.45;23.85;;;;;;;;;;5074708;28;20036;-66
2021/03/19 10:32:09;;;;;;;38.70;25.77;;;;;;;;;;5057179;28;20023;-68
2021/03/19 10:34:38;;;;;;;37.17;25.65;;;;;;;;;;5074142;28;20035;-67
2021/03/19 10:37:05;;;;;;;36.00;24.27;;;;;;;;;;5057056;28;20562;-68
2021/03/19 10:40:03;;;;;;;33.05;23.48;;;;;;;;;;5056338;28;20106;-67
2021/03/19 10:42:29;;;;;;;36.78;23.50;;;;;;;;;;4973968;28;20070;-67
2021/03/19 10:45:03;;;;;;;31.98;21.92;;;;;;;;;;4991504;28;20043;-67
2021/03/19 10:47:45;;;;;;;31.95;23.15;;;;;;;;;;4976705;28;20042;-66
2021/03/19 10:50:17;;;;;;;28.38;21.00;;;;;;;;;;4992084;28;20026;-67
2021/03/19 10:53:06;;;;;;;28.55;20.30;;;;;;;;;;4979670;28;20062;-67
2021/03/19 10:55:35;;;;;;;26.50;19.58;;;;;;;;;;4957104;29;20127;-71
2021/03/19 10:58:01;;;;;;;;;;;;;;;;;;4956304;28;20437;-72
2021/03/19 11:00:40;;;;;;;29.92;19.70;;;;;;;;;;4955730;29;19910;-67
2021/03/19 11:03:07;;;;;;;28.20;20.17;;;;;;;;;;4955954;28;20027;-69
2021/03/19 11:05:53;;;;;;;30.20;20.83;;;;;;;;;;4956475;29;20043;-67
2021/03/19 11:08:19;;;;;;;21.95;13.85;;;;;;;;;;4948641;29;20548;-67
2021/03/19 11:10:50;;;;;;;16.88;11.38;;;;;;;;;;4954049;29;20038;-66
2021/03/19 11:13:17;;;;;;;15.00;10.48;;;;;;;;;;4941711;29;20131;-67
2021/03/19 11:15:45;;;;;;;16.90;12.10;;;;;;;;;;4935230;29;20031;-66
2021/03/19 11:18:26;;;;;;;16.08;10.63;;;;;;;;;;4977794;28;20034;-67
2021/03/19 11:21:03;;;;;;;15.25;10.52;;;;;;;;;;4996451;28;20038;-68
2021/03/19 11:23:49;;;;;;;21.95;13.35;;;;;;;;;;4996299;28;20037;-68
2021/03/19 11:26:15;;;;;;;18.55;12.27;;;;;;;;;;4992673;28;20233;-68
2021/03/19 11:28:43;;;;;;;21.50;13.88;;;;;;;;;;4993304;28;20111;-67
2021/03/19 11:31:12;;;;;;;21.00;14.02;;;;;;;;;;4993104;28;20073;-68
2021/03/19 11:33:38;;;;;;;;;;;;;;;;;;5034457;28;20048;-67
2021/03/19 11:36:05;;;;;;;21.27;14.20;;;;;;;;;;5053948;28;19928;-67
2021/03/19 11:38:37;;;;;;;26.63;17.45;;;;;;;;;;5036317;28;20439;-66
2021/03/19 11:41:21;;;;;;;79.57;37.00;;;;;;;;;;5035689;28;20455;-67
2021/03/19 11:43:47;;;;;;;26.67;19.27;;;;;;;;;;5053533;28;20025;-67
2021/03/19 11:46:13;;;;;;;24.98;15.50;;;;;;;;;;5046619;28;20119;-66
2021/03/19 11:48:44;;;;;;;26.75;16.77;;;;;;;;;;5072705;28;20033;-67
2021/03/19 11:51:14;;;;;;;24.95;15.90;;;;;;;;;;5072639;28;20439;-67
2021/03/19 11:53:41;;;;;;;25.60;15.80;;;;;;;;;;5072503;28;20012;-67
2021/03/19 11:56:07;;;;;;;25.73;15.73;;;;;;;;;;5072383;28;20057;-69
2021/03/19 11:58:33;;;;;;;27.25;16.13;;;;;;;;;;5073055;28;20017;-67
2021/03/19 12:01:00;;;;;;;24.35;15.60;;;;;;;;;;5054588;28;20020;-61
2021/03/19 12:03:34;;;;;;;24.40;15.40;;;;;;;;;;5072544;28;20028;-62
2021/03/19 12:06:01;;;;;;;30.25;18.33;;;;;;;;;;5072217;28;20020;-62
2021/03/19 12:08:29;;;;;;;39.58;21.65;;;;;;;;;;5072191;28;20036;-62
2021/03/19 12:10:55;;;;;;;32.33;19.45;;;;;;;;;;5072177;28;20073;-61
2021/03/19 12:13:21;;;;;;;29.60;17.27;;;;;;;;;;5072299;28;20021;-63
2021/03/19 12:15:49;;;;;;;22.23;13.77;;;;;;;;;;5072077;28;20028;-62
2021/03/19 12:18:15;;;;;;;17.00;10.30;;;;;;;;;;5072478;28;20025;-63
2021/03/19 12:20:41;;;;;;;21.67;12.95;;;;;;;;;;5053844;28;20105;-62
2021/03/19 12:23:07;;;;;;;22.38;13.57;;;;;;;;;;5054195;28;20111;-62
2021/03/19 12:25:36;;;;;;;20.45;14.27;;;;;;;;;;5071750;28;20478;-62
2021/03/19 12:28:02;;;;;;;22.45;14.13;;;;;;;;;;5072111;28;20049;-63
2021/03/19 12:30:29;;;;;;;22.60;14.48;;;;;;;;;;5071799;28;20032;-62
2021/03/19 12:32:56;;;;;;;21.08;12.77;;;;;;;;;;5072133;28;20024;-63
2021/03/19 12:35:22;;;;;;;18.92;12.68;;;;;;;;;;5071740;28;20067;-64
2021/03/19 12:37:51;;;;;;;18.77;12.85;;;;;;;;;;5071915;28;20020;-62
2021/03/19 12:40:17;;;;;;;17.10;12.90;;;;;;;;;;5030401;28;684766;-62
2021/03/19 12:42:43;;;;;;;18.25;12.68;;;;;;;;;;5054364;28;20046;-64
2021/03/19 12:45:10;;;;;;;27.77;19.65;;;;;;;;;;5053968;28;20528;-61
2021/03/19 12:47:36;;;;;;;22.20;16.58;;;;;;;;;;5072643;28;20081;-61
2021/03/19 12:50:04;;;;;;;22.25;15.90;;;;;;;;;;5072783;28;20032;-62
2021/03/19 12:52:30;;;;;;;21.45;16.67;;;;;;;;;;5054437;28;20043;-62
2021/03/19 12:54:56;;;;;;;20.77;15.68;;;;;;;;;;5046404;28;20060;-62
2021/03/19 12:57:22;;;;;;;21.33;16.60;;;;;;;;;;5072659;28;20074;-62
2021/03/19 12:59:48;;;;;;;21.83;15.75;;;;;;;;;;5070236;28;20040;-63
2021/03/19 13:02:14;;;;;;;21.95;16.60;;;;;;;;;;5072225;28;20427;-63
2021/03/19 13:04:41;;;;;;;31.58;25.73;;;;;;;;;;5071614;28;20484;-62
2021/03/19 13:07:07;;;;;;;22.20;17.00;;;;;;;;;;5071743;28;20040;-63
2021/03/19 13:09:34;;;;;;;28.25;21.17;;;;;;;;;;5054354;28;20013;-61
2021/03/19 13:12:00;;;;;;;19.75;13.73;;;;;;;;;;5071663;28;20027;-62
2021/03/19 13:14:27;;;;;;;19.45;13.75;;;;;;;;;;5071946;28;20107;-63
2021/03/19 13:16:53;;;;;;;30.08;21.90;;;;;;;;;;5053972;28;20472;-61
2021/03/19 13:19:21;;;;;;;25.58;18.38;;;;;;;;;;5053580;28;20037;-63
2021/03/19 13:21:47;;;;;;;19.40;14.07;;;;;;;;;;5055539;28;20036;-63
2021/03/19 13:24:13;;;;;;;18.45;14.32;;;;;;;;;;5056450;28;20061;-61
2021/03/19 13:26:40;;;;;;;55.00;42.40;;;;;;;;;;5039915;28;20475;-63
2021/03/19 13:29:06;;;;;;;26.95;20.85;;;;;;;;;;5057456;28;20028;-63
2021/03/19 13:31:33;;;;;;;25.50;20.20;;;;;;;;;;5055350;28;20017;-60
2021/03/19 13:33:59;;;;;;;23.13;18.55;;;;;;;;;;5075760;28;20063;-60
2021/03/19 13:36:25;;;;;;;27.05;21.23;;;;;;;;;;5057580;28;20020;-60
2021/03/19 13:38:51;;;;;;;80.05;72.05;;;;;;;;;;5075290;28;20067;-62
2021/03/19 13:41:17;;;;;;;39.13;35.28;;;;;;;;;;5076614;28;20059;-61
2021/03/19 13:43:43;;;;;;;23.35;19.73;;;;;;;;;;5075970;28;20017;-61
2021/03/19 13:46:11;;;;;;;38.30;30.63;;;;;;;;;;5075262;28;20017;-62
2021/03/19 13:48:38;;;;;;;24.10;18.67;;;;;;;;;;5075632;28;20029;-62
2021/03/19 13:51:06;;;;;;;22.77;15.57;;;;;;;;;;5075627;28;20024;-64
2021/03/19 13:53:35;;;;;;;19.95;14.40;;;;;;;;;;5057581;28;20086;-62
2021/03/19 13:56:01;;;;;;;19.17;14.48;;;333.70;1356.80;;;;;;5055095;28;20021;-60
2021/03/19 13:58:30;;;;;;;19.35;14.07;;;333.60;1356.80;;;;;;5073580;28;20485;-61
2021/03/19 14:00:59;;;;;;;16.73;12.93;;;358.40;1331.20;;;;;;5056991;28;20078;-62
2021/03/19 14:03:25;;;;;;;17.45;13.43;;;333.50;1254.40;;;;;;5058480;28;20029;-61
2021/03/19 14:05:51;;;;;;;15.52;12.93;;;333.20;1331.20;;;;;;5075198;28;20421;-61
2021/03/19 14:08:23;;;;;;;18.73;14.27;;;333.20;1305.60;;;;;;5075193;28;20524;-61
2021/03/19 14:10:49;;;;;;;15.85;12.80;;;;;;;;;;5075342;28;20055;-61
2021/03/19 14:13:15;;;;;;;20.00;14.75;;;;;;;;;;5075559;28;20025;-62
2021/03/19 14:15:41;;;;;;;17.60;13.95;;;;;;;;;;5075173;28;20491;-62
2021/03/19 14:18:07;;;;;;;17.63;14.15;;;;;;;;;;5057421;28;20024;-62
2021/03/19 14:20:39;;;;;;;15.25;12.40;;;;;;;;;;5075357;28;20023;-61
2021/03/19 14:23:05;;;;;;;15.75;12.63;;;;;;;;;;5073329;28;20032;-61
2021/03/19 14:25:32;;;;;;;17.15;13.10;;;;;;;;;;5071548;28;20029;-61
2021/03/19 14:27:58;;;;;;;19.02;14.27;;;;;;;;;;5073960;28;20044;-61
2021/03/19 14:30:26;;;;;;;17.73;14.43;;;;;;;;;;5074140;28;20113;-61
2021/03/19 14:32:53;;;;;;;17.48;12.90;;;;;;;;;;5074096;28;21106;-63
2021/03/19 14:35:19;;;;;;;17.80;13.52;;;;;;;;;;5072125;28;20101;-61